Time;durP1;ratioP1;P1;durP2;ratioP2;P2;SDS_P1;SDS_P2;PMS_P1;PMS_P2;Temp;Humidity;BMP_temperature;BMP_pressure;BME280_temperature;BME280_humidity;BME280_pressure;Samples;Min_cycle;Max_cycle;Signal;HPM_P1;HPM_P2
2022/10/06 00:00:52;;;;;;;6.30;4.22;;;13.50;99.90;;;12.46;100.00;100995.97;4951821;28;20034;-83
2022/10/06 00:03:22;;;;;;;9.68;4.53;;;13.60;99.90;;;12.58;100.00;100999.75;4918103;29;20055;-83
2022/10/06 00:05:50;;;;;;;10.05;3.85;;;13.70;99.90;;;12.71;100.00;101000.84;4948369;28;20404;-82
2022/10/06 00:08:17;;;;;;;9.98;4.10;;;13.80;99.90;;;12.81;100.00;101003.88;4945755;28;20034;-82
2022/10/06 00:10:51;;;;;;;6.07;4.20;;;13.90;99.90;;;12.87;100.00;101006.22;4934519;29;20082;-82
2022/10/06 00:13:17;;;;;;;9.55;4.40;;;13.90;99.90;;;12.92;100.00;101008.59;4929452;28;20036;-83
2022/10/06 00:15:42;;;;;;;9.55;4.53;;;14.00;99.90;;;12.97;100.00;101009.22;4936237;29;20058;-84
2022/10/06 00:18:08;;;;;;;10.35;4.40;;;14.10;99.90;;;13.01;100.00;101010.75;4931669;29;20182;-83
2022/10/06 00:20:42;;;;;;;9.70;4.50;;;14.10;99.90;;;13.05;100.00;101000.91;4945650;28;20027;-82
2022/10/06 00:23:08;;;;;;;7.18;3.85;;;14.10;99.90;;;13.05;100.00;101009.66;4919742;29;20027;-84
2022/10/06 00:25:34;;;;;;;6.47;3.88;;;14.10;99.90;;;13.07;100.00;101005.16;4927743;28;20039;-83
2022/10/06 00:28:00;;;;;;;6.30;3.70;;;14.20;99.90;;;13.09;100.00;101007.72;4935595;29;20567;-82
2022/10/06 00:30:35;;;;;;;9.35;3.90;;;14.20;99.90;;;13.12;100.00;101018.13;4928313;28;20126;-82
2022/10/06 00:33:02;;;;;;;7.25;3.60;;;14.20;99.90;;;13.13;100.00;101014.53;4935461;29;20389;-83
2022/10/06 00:35:33;;;;;;;7.30;3.85;;;14.20;99.90;;;13.16;100.00;101021.47;4930063;28;20043;-84
2022/10/06 00:38:02;;;;;;;8.93;3.97;;;14.30;99.90;;;13.18;100.00;101023.09;4939559;28;20024;-83
2022/10/06 00:40:29;;;;;;;6.72;4.18;;;14.30;99.90;;;13.22;100.00;101024.66;4930947;28;20031;-83
2022/10/06 00:43:02;;;;;;;7.82;3.70;;;14.30;99.90;;;13.23;100.00;101021.06;4936175;28;20036;-84
2022/10/06 00:45:47;;;;;;;7.13;3.40;;;14.30;99.90;;;13.28;100.00;101028.75;4942010;29;20559;-84
2022/10/06 00:48:24;;;;;;;8.45;3.40;;;14.40;99.90;;;13.29;100.00;101033.16;4948202;28;20544;-83
2022/10/06 00:50:56;;;;;;;6.05;3.72;;;14.40;99.90;;;13.31;100.00;101036.56;4947705;28;20078;-84
2022/10/06 00:53:24;;;;;;;15.40;3.80;;;14.40;99.90;;;13.34;100.00;101039.03;4922882;29;20496;-83
2022/10/06 00:55:53;;;;;;;5.20;3.50;;;14.40;99.90;;;13.38;100.00;101037.09;4949662;28;20083;-83
2022/10/06 00:58:19;;;;;;;5.13;3.53;;;14.50;99.90;;;13.37;100.00;101038.88;4939136;29;20098;-84
2022/10/06 01:00:49;;;;;;;5.70;3.42;;;14.50;99.90;;;13.38;100.00;101040.59;4923466;29;20047;-82
2022/10/06 01:03:26;;;;;;;7.35;3.72;;;14.50;99.90;;;13.41;100.00;101044.84;4939421;29;20591;-81
2022/10/06 01:05:54;;;;;;;6.72;3.63;;;14.50;99.90;;;13.46;100.00;101048.97;4938784;29;20042;-82
2022/10/06 01:08:23;;;;;;;9.07;3.40;;;14.60;99.90;;;13.52;100.00;101048.66;4941398;28;20035;-83
2022/10/06 01:10:49;;;;;;;5.25;3.20;;;14.70;99.90;;;13.61;100.00;101054.38;4956030;28;20588;-82
2022/10/06 01:13:16;;;;;;;5.13;3.13;;;14.70;99.90;;;13.72;100.00;101059.94;4945693;28;20031;-83
2022/10/06 01:16:16;;;;;;;14.93;3.70;;;14.80;99.90;;;13.81;100.00;101066.53;4946701;28;20715;-82
2022/10/06 01:18:44;;;;;;;10.77;3.20;;;14.90;99.90;;;13.87;100.00;101074.13;4946301;28;20031;-80
2022/10/06 01:21:45;;;;;;;6.45;3.10;;;14.90;99.90;;;13.94;100.00;101070.19;4947953;28;20111;-83
2022/10/06 01:24:11;;;;;;;6.22;3.17;;;15.00;99.90;;;14.00;100.00;101074.31;4949004;28;20131;-83
2022/10/06 01:26:43;;;;;;;8.50;3.42;;;15.10;99.90;;;14.04;100.00;101078.47;4936744;28;20027;-84
2022/10/06 01:29:09;;;;;;;3.97;2.70;;;15.10;99.90;;;14.09;100.00;101077.28;4921798;28;20026;-83
2022/10/06 01:31:37;;;;;;;6.32;2.63;;;15.10;99.90;;;14.16;100.00;101078.66;4960184;23;20140;-80
2022/10/06 01:34:03;;;;;;;9.82;2.72;;;15.20;99.90;;;14.21;100.00;101072.25;4952054;28;20523;-79
2022/10/06 01:36:29;;;;;;;5.50;3.08;;;15.20;99.90;;;14.25;100.00;101077.28;4955419;28;20122;-79
2022/10/06 01:38:54;;;;;;;7.75;3.00;;;15.30;99.90;;;14.30;100.00;101075.25;4959066;28;20086;-78
2022/10/06 01:41:21;;;;;;;8.02;2.95;;;15.40;99.90;;;14.32;100.00;101064.56;4954530;28;20038;-79
2022/10/06 01:43:52;;;;;;;7.35;2.47;;;15.40;99.90;;;14.37;100.00;101067.78;4972372;28;20094;-80
2022/10/06 01:46:18;;;;;;;7.15;2.70;;;15.50;99.90;;;14.40;100.00;101051.72;4970676;28;20027;-80
2022/10/06 01:48:44;;;;;;;7.25;2.67;;;15.50;99.90;;;14.44;100.00;101065.66;4969794;28;20038;-78
2022/10/06 01:51:15;;;;;;;5.13;2.35;;;15.50;99.90;;;14.48;100.00;101062.72;4970387;28;20031;-81
2022/10/06 01:53:43;;;;;;;4.05;2.47;;;15.60;99.90;;;14.51;100.00;101064.34;4940066;29;20038;-80
2022/10/06 01:56:09;;;;;;;4.97;2.40;;;15.60;99.90;;;14.53;100.00;101068.59;4971749;28;20118;-80
2022/10/06 01:58:34;;;;;;;8.60;2.63;;;15.60;99.90;;;14.57;100.00;101069.31;4923771;28;20228;-79
2022/10/06 02:01:06;;;;;;;5.65;2.28;;;15.70;99.90;;;14.63;100.00;101068.13;4955716;28;20056;-81
2022/10/06 02:03:39;;;;;;;6.47;2.47;;;15.70;99.90;;;14.65;100.00;101068.91;4953396;28;20518;-79
2022/10/06 02:06:06;;;;;;;5.03;2.40;;;15.70;99.90;;;14.68;100.00;101069.53;4955733;28;20404;-79
2022/10/06 02:08:32;;;;;;;4.78;2.13;;;15.80;99.90;;;14.68;100.00;101074.00;4953689;28;20067;-78
2022/10/06 02:11:04;;;;;;;6.20;2.85;;;15.70;99.90;;;14.67;100.00;101080.25;4955363;28;20042;-79
2022/10/06 02:13:29;;;;;;;3.08;2.15;;;15.80;99.90;;;14.68;100.00;101084.59;4968721;28;20035;-80
2022/10/06 02:15:59;;;;;;;4.85;2.50;;;15.80;99.90;;;14.73;100.00;101099.31;4948955;28;20139;-78
2022/10/06 02:18:25;;;;;;;6.80;2.40;;;15.80;99.90;;;14.76;100.00;101099.13;4954856;28;20027;-79
2022/10/06 02:20:58;;;;;;;4.32;2.13;;;15.80;99.90;;;14.81;100.00;101112.09;4955809;28;20039;-80
2022/10/06 02:23:24;;;;;;;6.57;2.03;;;15.90;99.90;;;14.84;100.00;101119.88;4963452;28;20027;-80
2022/10/06 02:26:02;;;;;;;8.15;2.03;;;15.90;99.90;;;14.88;99.80;101108.16;4938719;29;20035;-80
2022/10/06 02:28:29;;;;;;;4.25;1.92;;;16.00;99.90;;;14.93;99.60;101118.50;4973162;28;20077;-80
2022/10/06 02:31:02;;;;;;;8.57;2.10;;;16.00;99.90;;;14.95;99.58;101121.91;4937176;28;20023;-80
2022/10/06 02:33:28;;;;;;;7.50;2.15;;;16.00;99.90;;;14.93;99.43;101124.66;4938295;28;20037;-80
2022/10/06 02:35:55;;;;;;;6.07;2.10;;;16.00;99.90;;;14.94;99.03;101114.88;4953779;28;20031;-81
2022/10/06 02:38:22;;;;;;;4.75;2.03;;;16.00;99.90;;;15.00;98.50;101134.91;4953049;28;20023;-80
2022/10/06 02:40:49;;;;;;;5.38;1.92;;;16.00;99.90;;;14.98;97.84;101127.88;4939888;28;20101;-80
2022/10/06 02:43:15;;;;;;;5.55;1.83;;;16.00;99.90;;;15.01;97.46;101142.78;4939189;29;20110;-79
2022/10/06 02:45:52;;;;;;;4.88;1.80;;;16.00;99.90;;;15.04;97.41;101152.34;4955688;28;20031;-80
2022/10/06 02:48:18;;;;;;;5.70;1.77;;;16.00;99.90;;;15.04;96.42;101155.00;4967691;28;20039;-81
2022/10/06 02:51:15;;;;;;;5.82;1.67;;;16.10;99.90;;;15.05;95.49;101162.00;4955241;28;20054;-79
2022/10/06 02:53:45;;;;;;;7.18;1.50;;;16.00;99.90;;;15.05;95.04;101156.69;4971521;28;20122;-80
2022/10/06 02:56:18;;;;;;;5.28;1.15;;;16.10;99.90;;;15.06;94.48;101159.25;4968940;28;20480;-81
2022/10/06 02:58:47;;;;;;;12.13;1.50;;;16.10;99.90;;;15.06;93.93;101169.03;4955769;28;20479;-79
2022/10/06 03:01:16;;;;;;;3.33;0.95;;;16.10;99.90;;;15.05;92.48;101165.50;4936793;28;20038;-80
2022/10/06 03:03:43;;;;;;;5.22;1.08;;;16.10;99.90;;;15.07;91.75;101183.97;4965389;28;20065;-78
2022/10/06 03:06:22;;;;;;;4.63;0.95;;;16.10;99.90;;;15.08;91.69;101191.00;4955595;28;20035;-80
2022/10/06 03:08:55;;;;;;;4.82;1.30;;;16.10;99.90;;;15.07;91.02;101199.88;4953342;28;20035;-80
2022/10/06 03:11:28;;;;;;;5.00;1.15;;;16.10;99.90;;;15.02;90.85;101188.72;4936788;28;20119;-80
2022/10/06 03:13:54;;;;;;;6.35;0.95;;;16.10;99.90;;;15.01;90.78;101194.94;4953211;28;20090;-79
2022/10/06 03:16:27;;;;;;;4.60;1.00;;;16.00;99.90;;;14.95;90.74;101189.06;4955171;28;20055;-80
2022/10/06 03:18:55;;;;;;;4.75;1.00;;;16.00;99.90;;;14.91;91.02;101191.97;4953874;28;20103;-79
2022/10/06 03:21:26;;;;;;;3.30;0.88;;;16.00;99.90;;;14.90;91.04;101200.84;4969867;28;20027;-80
2022/10/06 03:23:53;;;;;;;4.53;1.00;;;15.90;99.90;;;14.91;90.94;101207.88;4968255;28;20039;-79
2022/10/06 03:26:26;;;;;;;3.53;0.80;;;15.90;99.90;;;14.93;91.08;101214.81;4968483;28;20051;-80
2022/10/06 03:28:53;;;;;;;4.32;0.98;;;16.00;99.90;;;14.89;90.52;101217.72;4938619;28;20039;-78
2022/10/06 03:31:22;;;;;;;2.92;0.80;;;15.90;99.90;;;14.89;90.41;101226.53;4952944;28;20027;-79
2022/10/06 03:33:49;;;;;;;2.95;0.90;;;15.90;99.90;;;14.86;90.12;101239.97;4935177;28;20110;-80
2022/10/06 03:36:23;;;;;;;6.93;0.82;;;15.90;99.90;;;14.82;90.09;101250.84;4967115;28;20023;-79
2022/10/06 03:38:50;;;;;;;3.97;0.70;;;15.80;99.90;;;14.76;90.40;101254.66;4950803;28;20015;-81
2022/10/06 03:41:22;;;;;;;2.15;0.65;;;15.80;99.90;;;14.69;90.89;101258.59;4951854;28;20500;-79
2022/10/06 03:43:53;;;;;;;4.30;0.80;;;15.70;99.90;;;14.66;91.05;101272.00;4935866;28;20038;-79
2022/10/06 03:46:22;;;;;;;2.15;0.52;;;15.70;99.90;;;14.65;91.19;101270.31;4968376;28;20066;-80
2022/10/06 03:48:53;;;;;;;5.10;0.60;;;15.70;99.90;;;14.67;91.24;101279.03;4950899;28;20043;-80
2022/10/06 03:51:30;;;;;;;4.97;0.80;;;15.70;99.90;;;14.66;91.42;101291.41;4967987;28;20035;-79
2022/10/06 03:54:02;;;;;;;2.05;0.50;;;15.70;99.90;;;14.61;91.45;101301.41;4936497;29;20707;-78
2022/10/06 03:56:33;;;;;;;0.93;0.50;;;15.60;99.90;;;14.52;91.80;101307.19;4935929;29;20031;-81
2022/10/06 03:59:05;;;;;;;6.53;0.70;;;15.60;99.90;;;14.50;92.22;101315.22;4951910;28;20030;-79
2022/10/06 04:01:34;;;;;;;4.90;0.45;;;15.60;99.90;;;14.49;92.52;101315.28;4950366;28;20035;-81
2022/10/06 04:04:01;;;;;;;3.38;0.70;;;15.60;99.90;;;14.51;92.55;101318.72;4954160;28;20042;-80
2022/10/06 04:06:32;;;;;;;1.88;0.70;;;15.50;99.90;;;14.48;93.02;101322.38;4953030;28;20039;-79
2022/10/06 04:08:59;;;;;;;4.13;0.60;;;15.50;99.90;;;14.50;92.74;101336.41;4958847;28;20051;-79
2022/10/06 04:11:34;;;;;;;3.55;0.57;;;15.50;99.90;;;14.50;92.70;101340.88;4969417;28;20066;-81
2022/10/06 04:14:04;;;;;;;3.73;0.60;;;15.50;99.90;;;14.44;93.00;101344.69;4970945;28;20066;-78
2022/10/06 04:16:32;;;;;;;1.85;0.50;;;15.50;99.90;;;14.44;92.26;101354.44;4941060;28;20712;-79
2022/10/06 04:19:05;;;;;;;3.63;0.40;;;15.40;99.90;;;14.31;92.35;101349.78;4958794;28;20039;-79
2022/10/06 04:21:35;;;;;;;6.00;0.70;;;15.30;99.90;;;14.21;91.30;101353.84;4962491;23;20128;-82
2022/10/06 04:24:02;;;;;;;5.50;0.60;;;15.20;99.90;;;14.08;89.97;101352.75;4955478;29;20127;-81
2022/10/06 04:26:33;;;;;;;5.40;0.73;;;15.10;99.90;;;13.94;89.41;101359.63;4954908;29;20518;-79
2022/10/06 04:29:01;;;;;;;1.73;0.63;;;15.00;99.90;;;13.74;89.05;101365.91;4955747;29;20031;-81
2022/10/06 04:31:39;;;;;;;4.97;0.52;;;14.90;99.90;;;13.66;89.47;101372.53;4955602;28;20046;-80
2022/10/06 04:34:07;;;;;;;2.95;0.40;;;14.80;99.90;;;13.49;89.60;101384.78;4941745;29;20396;-81
2022/10/06 04:36:40;;;;;;;3.50;0.60;;;14.70;99.90;;;13.45;89.51;101390.28;4938620;29;20035;-80
2022/10/06 04:39:09;;;;;;;2.17;0.43;;;14.60;99.90;;;13.40;89.71;101387.88;4940103;29;20419;-79
2022/10/06 04:41:38;;;;;;;2.97;0.60;;;14.60;99.90;;;13.40;89.99;101398.44;4953541;29;20377;-79
2022/10/06 04:44:11;;;;;;;5.63;0.52;;;14.50;99.90;;;13.37;89.77;101403.00;4939222;29;20440;-80
2022/10/06 04:46:37;;;;;;;2.35;0.52;;;14.50;99.90;;;13.32;90.07;101406.72;4937311;29;20039;-81
2022/10/06 04:49:03;;;;;;;5.78;0.63;;;14.40;99.90;;;13.27;90.59;101407.88;4938673;29;20459;-80
2022/10/06 04:51:29;;;;;;;6.70;0.90;;;14.40;99.90;;;13.23;90.88;101411.59;4937681;29;20041;-79
2022/10/06 04:54:02;;;;;;;3.42;0.55;;;14.30;99.90;;;13.23;91.05;101407.16;4938290;29;20119;-79
2022/10/06 04:56:30;;;;;;;3.95;0.80;;;14.30;99.90;;;13.19;91.56;101416.16;4954299;29;20038;-79
2022/10/06 04:58:57;;;;;;;4.53;0.70;;;14.30;99.90;;;13.20;91.15;101425.81;4939007;29;20547;-78
2022/10/06 05:01:32;;;;;;;1.88;0.60;;;14.30;99.90;;;13.21;91.62;101424.88;4922820;29;20066;-78
2022/10/06 05:04:00;;;;;;;6.43;0.50;;;14.30;99.90;;;13.20;91.71;101435.53;4953749;29;20724;-78
2022/10/06 05:06:29;;;;;;;4.80;0.80;;;14.30;99.90;;;13.21;91.55;101432.81;4937959;29;20126;-79
2022/10/06 05:09:01;;;;;;;5.38;0.85;;;14.30;99.90;;;13.19;91.51;101441.75;4953708;29;20055;-79
2022/10/06 05:11:28;;;;;;;3.60;0.70;;;14.20;99.90;;;13.13;91.32;101446.38;4952658;28;20035;-78
2022/10/06 05:14:03;;;;;;;6.38;0.55;;;14.20;99.90;;;13.11;91.67;101448.25;4952973;29;20098;-78
2022/10/06 05:16:30;;;;;;;3.05;0.70;;;14.20;99.90;;;13.06;91.65;101454.66;4952861;29;20051;-79
2022/10/06 05:18:57;;;;;;;4.00;0.57;;;14.10;99.90;;;13.00;92.45;101463.75;4938305;29;20035;-78
2022/10/06 05:21:29;;;;;;;3.45;0.50;;;14.10;99.90;;;13.00;91.98;101462.88;4935432;29;20034;-78
2022/10/06 05:23:56;;;;;;;3.42;0.80;;;14.10;99.90;;;12.96;92.74;101474.50;4936847;29;20027;-80
2022/10/06 05:26:25;;;;;;;3.33;0.50;;;14.00;99.90;;;12.95;92.78;101476.28;4923596;29;20055;-79
2022/10/06 05:28:54;;;;;;;3.92;0.50;;;14.00;99.90;;;12.95;92.34;101484.22;4937818;29;20054;-79
2022/10/06 05:31:22;;;;;;;1.73;0.40;;;14.00;99.90;;;12.96;92.81;101493.88;4938572;29;20384;-78
2022/10/06 05:33:48;;;;;;;5.28;0.90;;;14.00;99.90;;;12.95;92.57;101486.88;4952850;29;20040;-78
2022/10/06 05:36:18;;;;;;;4.03;0.52;;;14.00;99.90;;;12.97;92.70;101497.38;4936179;29;20042;-78
2022/10/06 05:38:49;;;;;;;2.95;0.60;;;14.00;99.90;;;12.96;92.99;101504.47;4952634;29;20035;-79
2022/10/06 05:41:25;;;;;;;7.55;0.85;;;14.00;99.90;;;12.96;92.52;101507.09;4936499;28;20403;-80
2022/10/06 05:43:54;;;;;;;8.82;0.75;;;14.00;99.90;;;12.97;93.19;101522.03;4922120;29;20023;-80
2022/10/06 05:46:27;;;;;;;4.72;0.90;;;14.00;99.90;;;13.01;92.86;101522.75;4937079;28;20047;-78
2022/10/06 05:48:59;;;;;;;4.53;0.80;;;14.00;99.90;;;13.04;93.02;101528.75;4953966;29;20496;-79
2022/10/06 05:51:28;;;;;;;3.95;0.57;;;14.00;99.90;;;13.08;92.88;101532.13;4937572;29;20031;-82
2022/10/06 05:53:54;;;;;;;4.05;0.60;;;14.00;99.90;;;13.10;92.44;101535.56;4935731;28;20036;-78
2022/10/06 05:56:27;;;;;;;4.57;0.80;;;14.10;99.90;;;13.17;92.78;101544.06;4937247;29;20036;-79
2022/10/06 05:58:55;;;;;;;7.32;0.90;;;14.10;99.90;;;13.44;91.63;101555.25;4954048;29;20039;-79
2022/10/06 06:01:28;;;;;;;5.38;0.60;;;14.20;99.90;;;13.80;90.13;101565.06;4937474;29;20508;-79
2022/10/06 06:04:00;;;;;;;4.10;0.70;;;14.30;99.90;;;15.00;85.46;101575.97;4937879;29;20118;-78
2022/10/06 06:06:38;;;;;;;5.47;0.68;;;14.90;99.90;;;17.39;74.64;101593.53;4954067;29;20167;-79
2022/10/06 06:09:13;;;;;;;7.70;0.93;;;15.30;99.90;;;16.77;72.48;101575.06;4955040;29;20070;-80
2022/10/06 06:11:45;;;;;;;8.15;0.77;;;15.60;99.90;;;16.18;74.79;101584.69;4922563;29;20130;-80
2022/10/06 06:15:59;;;;;;;4.45;0.70;;;15.80;99.90;;;17.02;72.58;101590.44;4938771;29;20031;-80
2022/10/06 06:17:04;;;;;;;12.23;0.90;;;16.20;99.90;;;18.00;70.44;101607.50;4953929;29;20027;-79
2022/10/06 06:19:29;;;;;;;11.35;0.70;;;16.40;99.90;;;16.45;73.52;101600.84;4921679;29;20043;-80
2022/10/06 06:21:58;;;;;;;6.47;0.73;;;16.30;99.90;;;15.63;76.06;101599.16;4926897;29;20040;-80
2022/10/06 06:24:29;;;;;;;4.20;0.75;;;16.20;99.90;;;15.23;78.37;101611.06;4937627;29;20617;-79
2022/10/06 06:26:54;;;;;;;4.10;0.60;;;16.00;99.90;;;14.74;80.54;101614.41;4953385;29;20027;-79
2022/10/06 06:29:21;;;;;;;4.05;0.60;;;15.80;99.90;;;14.52;82.30;101618.09;4954574;28;20074;-80
2022/10/06 06:31:48;;;;;;;11.93;0.82;;;15.60;99.90;;;14.43;83.51;101626.50;4954159;28;20447;-79
2022/10/06 06:34:14;;;;;;;6.47;0.63;;;15.50;99.90;;;14.76;83.45;101631.94;4937891;29;20043;-78
2022/10/06 06:36:46;;;;;;;3.95;0.70;;;16.00;99.90;;;19.14;67.79;101653.38;4937300;29;20034;-79
2022/10/06 06:39:14;;;;;;;6.80;0.75;;;16.60;99.90;;;17.96;67.28;101629.97;4951775;28;20050;-81
2022/10/06 06:42:00;;;;;;;8.85;0.90;;;16.90;99.90;;;17.08;70.97;101641.56;4933693;29;20050;-79
2022/10/06 06:44:29;;;;;;;;;;;17.00;99.90;;;18.90;63.65;101655.91;4951054;29;20287;-80
2022/10/06 06:46:55;;;;;;;7.30;1.00;;;17.50;99.90;;;18.25;68.48;101664.56;4948733;28;19918;-79
2022/10/06 06:49:21;;;;;;;9.00;1.08;;;17.80;99.90;;;19.73;62.21;101663.59;4953465;28;20027;-80
2022/10/06 06:51:48;;;;;;;7.50;1.10;;;18.60;99.90;;;23.00;54.94;101688.53;4937132;28;20702;-79
2022/10/06 06:54:15;;;;;;;6.18;0.82;;;19.10;99.90;;;20.72;60.75;101680.59;4935754;29;20038;-80
2022/10/06 06:56:50;;;;;;;7.05;1.23;;;19.20;99.90;;;21.17;61.00;101697.69;4951329;29;20031;-80
2022/10/06 06:59:17;;;;;;;5.13;1.00;;;19.40;99.90;;;20.54;59.27;101697.00;4937234;28;20028;-79
2022/10/06 07:01:51;;;;;;;6.93;0.90;;;19.30;99.90;;;18.62;64.84;101697.72;4929003;29;20603;-79
2022/10/06 07:04:17;;;;;;;6.70;1.10;;;18.90;99.90;;;17.88;67.25;101706.00;4936823;29;20035;-79
2022/10/06 07:06:56;;;;;;;7.75;1.33;;;18.60;99.90;;;18.04;67.88;101709.44;4935680;29;20438;-79
2022/10/06 07:09:24;;;;;;;8.85;1.10;;;18.20;99.90;;;17.05;70.32;101706.47;4952861;28;20034;-78
2022/10/06 07:11:50;;;;;;;20.27;1.98;;;17.90;99.90;;;16.83;71.60;101716.66;4951083;28;20504;-79
2022/10/06 07:14:23;;;;;;;10.07;1.40;;;17.90;99.90;;;17.79;68.25;101723.38;4936795;29;20102;-79
2022/10/06 07:25:24;;;;;;;10.55;1.70;;;18.80;99.90;;;19.32;62.89;101750.06;4931278;29;20070;-79
2022/10/06 07:27:50;;;;;;;14.05;1.70;;;19.00;99.90;;;18.79;63.44;101752.66;4952392;28;20563;-79
2022/10/06 07:30:22;;;;;;;13.55;2.17;;;18.90;99.90;;;17.89;66.11;101747.69;4922843;29;20166;-79
2022/10/06 07:32:50;;;;;;;6.18;1.45;;;18.50;99.90;;;17.10;68.23;101756.75;4951155;28;20113;-80
2022/10/06 07:35:19;;;;;;;9.70;1.48;;;18.30;99.90;;;18.96;65.38;101783.59;4936785;29;20551;-81
2022/10/06 07:37:52;;;;;;;14.30;1.92;;;18.70;99.90;;;20.16;62.03;101775.50;4935024;28;20132;-79
2022/10/06 07:40:18;;;;;;;11.63;1.73;;;19.70;99.90;;;22.00;56.93;101792.31;4937876;29;20035;-80
2022/10/06 07:42:47;;;;;;;20.15;1.95;;;20.70;99.90;;;21.16;57.37;101776.31;4934320;28;20030;-79
2022/10/06 07:45:37;;;;;;;14.32;1.55;;;20.90;99.90;;;19.78;60.00;101789.69;4936724;29;20028;-80
2022/10/06 07:48:16;;;;;;;14.07;2.33;;;20.40;99.90;;;18.90;63.34;101792.00;4952589;28;20028;-79
2022/10/06 07:50:44;;;;;;;11.85;1.80;;;19.80;99.90;;;18.40;64.24;101794.25;4953154;28;20051;-80
2022/10/06 07:53:11;;;;;;;13.82;1.90;;;19.30;99.90;;;17.73;66.19;101806.31;4936505;29;20031;-80
2022/10/06 07:55:41;;;;;;;12.98;2.10;;;18.80;99.90;;;17.39;67.56;101805.66;4938056;29;20110;-80
2022/10/06 07:58:21;;;;;;;16.08;2.03;;;18.50;99.90;;;17.77;67.01;101819.34;4935257;29;20496;-79
2022/10/06 08:00:47;;;;;;;14.52;1.75;;;18.40;99.90;;;17.41;67.42;101828.56;4937683;29;20035;-79
2022/10/06 08:03:17;;;;;;;13.32;1.98;;;18.60;99.90;;;17.92;65.76;101824.75;4952142;28;20059;-79
2022/10/06 08:05:53;;;;;;;11.35;1.95;;;18.90;99.90;;;19.27;64.08;101842.97;4937162;29;20163;-79
2022/10/06 08:08:19;;;;;;;13.15;1.90;;;19.60;99.90;;;20.24;61.45;101848.03;4937968;29;20031;-81
2022/10/06 08:10:53;;;;;;;16.30;2.38;;;20.30;99.90;;;19.93;60.45;101849.25;4936898;28;20058;-79
2022/10/06 08:13:19;;;;;;;15.95;2.40;;;20.60;99.90;;;19.92;60.07;101858.25;4948951;28;20024;-81
2022/10/06 08:15:46;;;;;;;18.98;2.38;;;20.90;99.90;;;20.67;58.70;101862.91;4936477;28;20036;-81
2022/10/06 08:18:11;;;;;;;24.15;2.00;;;21.40;99.90;;;20.88;58.00;101860.47;4936486;29;20448;-80
2022/10/06 08:20:37;;;;;;;14.13;2.40;;;21.70;99.90;;;20.89;57.82;101872.91;4935444;29;20042;-80
2022/10/06 08:23:07;;;;;;;18.73;2.55;;;21.70;99.90;;;21.14;57.24;101874.66;4937084;29;20027;-80
2022/10/06 08:25:35;;;;;;;13.00;2.13;;;22.10;99.90;;;21.90;55.83;101889.56;4935983;29;20085;-80
2022/10/06 08:28:01;;;;;;;13.90;2.53;;;22.70;99.90;;;22.22;54.61;101885.34;4935720;29;20058;-80
2022/10/06 08:30:26;;;;;;;18.90;2.75;;;22.90;99.90;;;21.90;54.59;101894.91;4935463;29;20035;-79
2022/10/06 08:32:52;;;;;;;13.05;2.38;;;23.10;99.90;;;22.38;53.62;101903.84;4935698;29;20376;-80
2022/10/06 08:35:20;;;;;;;17.70;2.03;;;23.30;99.90;;;22.05;52.58;101892.00;4937082;29;20038;-80
2022/10/06 08:37:49;;;;;;;14.75;2.50;;;23.20;99.90;;;22.30;53.42;101916.00;4951533;28;20039;-80
2022/10/06 08:40:14;;;;;;;18.70;2.88;;;22.90;99.90;;;21.34;54.42;101905.34;4936766;29;20032;-79
2022/10/06 08:42:44;;;;;;;18.15;2.63;;;22.50;99.90;;;21.17;55.32;101914.63;4936689;28;20067;-80
2022/10/06 08:45:22;;;;;;;14.48;2.75;;;22.10;99.90;;;21.46;55.40;101930.41;4937352;29;20066;-78
2022/10/06 08:48:01;;;;;;;21.70;3.55;;;22.00;99.90;;;21.18;55.23;101928.84;4923421;29;20028;-80
2022/10/06 08:50:37;;;;;;;22.67;2.97;;;22.10;99.90;;;21.43;55.05;101936.00;4953742;28;20427;-79
2022/10/06 08:53:32;;;;;;;12.77;1.92;;;22.10;99.90;;;21.30;53.28;101930.66;4936857;28;20023;-81
2022/10/06 08:56:21;;;;;;;15.88;2.33;;;21.80;99.90;;;20.99;55.12;101937.34;4954526;28;20027;-80
2022/10/06 08:59:03;;;;;;;16.52;2.90;;;21.70;99.90;;;20.85;54.68;101944.53;4956270;28;20063;-79
2022/10/06 09:01:53;;;;;;;26.33;3.10;;;21.40;99.90;;;20.02;55.78;101944.00;4956496;28;20049;-82
2022/10/06 09:04:31;;;;;;;15.45;2.95;;;21.00;99.90;;;20.08;56.68;101952.47;4923818;29;20039;-82
2022/10/06 09:07:02;;;;;;;22.50;2.75;;;20.70;99.90;;;19.56;57.81;101947.91;4955478;29;20103;-84
2022/10/06 09:09:56;;;;;;;18.60;3.22;;;20.50;99.90;;;19.76;57.62;101951.09;4941350;28;20031;-79
2022/10/06 09:12:42;;;;;;;21.83;2.97;;;20.40;99.90;;;20.14;57.36;101963.75;4955952;28;20043;-81
2022/10/06 09:15:55;;;;;;;14.23;2.50;;;20.50;99.90;;;20.13;56.71;101965.56;4940283;29;20027;-80
2022/10/06 09:18:38;;;;;;;20.13;3.03;;;20.30;99.90;;;19.59;56.82;101969.09;4896969;29;20040;-81
2022/10/06 09:21:20;;;;;;;18.40;3.20;;;20.10;99.90;;;19.02;58.14;101977.16;4938594;28;20038;-82
2022/10/06 09:24:01;;;;;;;17.38;2.70;;;19.80;99.90;;;18.84;59.59;101968.50;4943646;29;20035;-82
2022/10/06 09:26:42;;;;;;;22.45;3.00;;;19.60;99.90;;;18.72;61.05;101979.88;4956618;29;20031;-82
2022/10/06 09:29:11;;;;;;;18.25;2.95;;;19.40;99.90;;;18.45;60.45;101977.97;4943028;29;20110;-82
2022/10/06 09:31:49;;;;;;;14.63;2.78;;;19.30;99.90;;;18.40;61.14;101983.56;4956063;28;20031;-81
2022/10/06 09:35:03;;;;;;;17.45;3.22;;;19.30;99.90;;;18.45;61.20;101981.47;4957159;28;20039;-82
2022/10/06 09:38:06;;;;;;;18.58;2.50;;;19.30;99.90;;;18.63;61.41;101990.16;4941987;28;20023;-81
2022/10/06 09:41:00;;;;;;;14.40;2.25;;;19.40;99.90;;;18.74;60.36;101994.00;4941986;29;20027;-81
2022/10/06 09:43:30;;;;;;;13.63;2.78;;;19.50;99.90;;;18.73;60.16;101997.63;4955465;28;20039;-83
2022/10/06 09:46:43;;;;;;;17.83;2.75;;;19.50;99.90;;;18.85;60.42;102004.91;4938249;28;20167;-80
2022/10/06 09:49:35;;;;;;;19.40;2.45;;;19.50;99.90;;;18.64;59.76;102005.22;4955090;28;20028;-82
2022/10/06 09:52:17;;;;;;;12.80;2.50;;;19.40;99.90;;;18.51;61.23;102012.25;4939808;29;20051;-81
2022/10/06 09:55:13;;;;;;;15.32;2.72;;;19.40;99.90;;;18.58;60.71;102013.59;4938900;28;20035;-79
2022/10/06 09:57:52;;;;;;;13.73;2.35;;;19.40;99.90;;;18.67;61.49;102024.69;4955936;28;20387;-81
2022/10/06 10:00:49;;;;;;;12.18;2.20;;;19.40;99.90;;;18.74;59.74;102026.88;4939729;29;20047;-82
2022/10/06 10:03:15;;;;;;;15.20;2.78;;;19.50;99.90;;;18.64;60.11;102025.72;4955631;28;20025;-79
2022/10/06 10:05:50;;;;;;;19.60;2.83;;;19.40;99.90;;;18.61;60.56;102034.75;4938493;28;20039;-81
2022/10/06 10:08:32;;;;;;;18.27;2.67;;;19.40;99.90;;;18.56;60.42;102036.84;4938523;29;20379;-81
2022/10/06 10:12:23;;;;;;;20.13;2.33;;;19.30;99.90;;;18.36;61.11;102037.19;4939373;28;20043;-82
2022/10/06 10:13:59;;;;;;;19.77;2.83;;;19.30;99.90;;;18.38;61.30;102043.25;4956740;28;20125;-81
2022/10/06 10:16:33;;;;;;;16.02;2.83;;;19.20;99.90;;;18.44;61.55;102051.78;4940039;29;20034;-80
2022/10/06 10:19:04;;;;;;;18.10;2.72;;;19.20;99.90;;;18.39;61.12;102055.66;4954360;28;20043;-81
2022/10/06 10:21:34;;;;;;;19.85;3.22;;;19.30;99.90;;;18.58;61.40;102056.28;4937597;29;20031;-81
2022/10/06 10:24:13;;;;;;;19.45;2.40;;;19.30;99.90;;;18.61;61.10;102057.91;4939433;28;20023;-80
2022/10/06 10:27:14;;;;;;;16.38;2.42;;;19.30;99.90;;;18.63;61.13;102064.84;4940902;29;20039;-80
2022/10/06 10:30:09;;;;;;;16.38;3.00;;;19.40;99.90;;;18.68;59.39;102061.91;4956713;28;20123;-80
2022/10/06 10:32:59;;;;;;;21.65;2.63;;;19.50;99.90;;;18.70;59.38;102070.69;4950041;28;20058;-80
2022/10/06 10:35:40;;;;;;;15.93;2.40;;;19.50;99.90;;;18.66;59.23;102074.50;4924076;29;20044;-82
2022/10/06 10:38:21;;;;;;;16.33;2.30;;;19.50;99.90;;;18.49;59.10;102066.63;4922558;29;20031;-80
2022/10/06 10:41:35;;;;;;;18.40;2.38;;;19.30;99.90;;;18.26;59.45;102087.50;4954403;28;20043;-81